Time;durP1;ratioP1;P1;durP2;ratioP2;P2;SDS_P1;SDS_P2;PMS_P1;PMS_P2;Temp;Humidity;BMP_temperature;BMP_pressure;BME280_temperature;BME280_humidity;BME280_pressure;Samples;Min_cycle;Max_cycle;Signal;HPM_P1;HPM_P2
2021/05/26 00:01:54;;;;;;;0.00;0.00;;;13.60;76.50;;;;;;5051997;28;20055;-67
2021/05/26 00:04:20;;;;;;;0.00;0.00;;;13.50;76.70;;;;;;5051924;28;20131;-67
2021/05/26 00:06:46;;;;;;;0.00;0.00;;;13.60;77.10;;;;;;5051785;28;20119;-67
2021/05/26 00:09:13;;;;;;;0.00;0.00;;;13.50;77.00;;;;;;5052027;28;20049;-67
2021/05/26 00:11:39;;;;;;;0.10;0.10;;;13.60;76.90;;;;;;5051678;28;20119;-67
2021/05/26 00:14:05;;;;;;;0.00;0.00;;;13.60;77.10;;;;;;5051762;28;20073;-68
2021/05/26 00:16:32;;;;;;;0.00;0.00;;;13.60;77.00;;;;;;5051048;28;20577;-67
2021/05/26 00:18:58;;;;;;;0.10;0.10;;;13.50;77.20;;;;;;5051445;28;20457;-67
2021/05/26 00:21:25;;;;;;;0.00;0.00;;;13.50;77.30;;;;;;5051945;28;20048;-67
2021/05/26 00:23:51;;;;;;;0.00;0.00;;;13.50;77.20;;;;;;5051718;28;20060;-67
2021/05/26 00:26:18;;;;;;;0.00;0.00;;;13.50;77.40;;;;;;5051541;28;20067;-67
2021/05/26 00:28:46;;;;;;;0.00;0.00;;;13.50;77.30;;;;;;5051466;28;20120;-67
2021/05/26 00:31:13;;;;;;;0.00;0.00;;;13.60;77.20;;;;;;5051189;28;20056;-67
2021/05/26 00:33:39;;;;;;;0.00;0.00;;;13.60;77.20;;;;;;5051256;28;20528;-67
2021/05/26 00:36:06;;;;;;;0.00;0.00;;;13.60;77.30;;;;;;5051834;28;20199;-67
2021/05/26 00:38:32;;;;;;;0.05;0.05;;;13.60;77.30;;;;;;5051240;28;20462;-68
2021/05/26 00:40:58;;;;;;;0.00;0.00;;;13.60;77.30;;;;;;5050716;28;20097;-67
2021/05/26 00:43:25;;;;;;;0.00;0.00;;;13.60;77.40;;;;;;5051371;28;20049;-67
2021/05/26 00:45:51;;;;;;;0.05;0.05;;;13.60;77.40;;;;;;5051583;28;20109;-67
2021/05/26 00:48:17;;;;;;;0.00;0.00;;;13.60;77.40;;;;;;5055007;28;20045;-67
2021/05/26 00:50:44;;;;;;;0.00;0.00;;;13.60;77.30;;;;;;5055354;28;20074;-67
2021/05/26 00:53:12;;;;;;;0.00;0.00;;;13.60;77.20;;;;;;5054562;28;20041;-67
2021/05/26 00:55:40;;;;;;;0.00;0.00;;;13.60;77.40;;;;;;5054863;28;20126;-67
2021/05/26 00:58:08;;;;;;;0.00;0.00;;;13.60;77.20;;;;;;5054386;28;20087;-67
2021/05/26 01:00:37;;;;;;;0.00;0.00;;;13.60;77.70;;;;;;5055249;28;20084;-67
2021/05/26 01:03:04;;;;;;;0.00;0.00;;;13.60;77.80;;;;;;5054527;28;20049;-67
2021/05/26 01:05:31;;;;;;;0.00;0.00;;;13.60;77.80;;;;;;5054512;28;20533;-67
2021/05/26 01:07:58;;;;;;;0.00;0.00;;;13.60;78.00;;;;;;5054504;28;20434;-67
2021/05/26 01:10:27;;;;;;;0.00;0.00;;;13.60;78.10;;;;;;5054692;28;20075;-67
2021/05/26 01:12:55;;;;;;;0.00;0.00;;;13.60;78.00;;;;;;5054018;28;20518;-67
2021/05/26 01:15:23;;;;;;;0.00;0.00;;;13.60;77.90;;;;;;5054802;28;20120;-67
2021/05/26 01:17:51;;;;;;;0.00;0.00;;;13.60;78.20;;;;;;5054769;28;20049;-67
2021/05/26 01:20:36;;;;;;;0.00;0.00;;;13.60;78.60;;;;;;5054404;28;20087;-67
2021/05/26 01:23:02;;;;;;;0.00;0.00;;;13.60;78.40;;;;;;5048245;28;20060;-67
2021/05/26 01:25:28;;;;;;;0.00;0.00;;;13.50;78.50;;;;;;5054338;28;20056;-67
2021/05/26 01:27:57;;;;;;;0.00;0.00;;;13.60;78.60;;;;;;5054232;28;20057;-67
2021/05/26 01:30:24;;;;;;;0.00;0.00;;;13.50;78.60;;;;;;5054118;28;20045;-67
2021/05/26 01:32:53;;;;;;;0.00;0.00;;;13.60;78.50;;;;;;5036332;28;20064;-67
2021/05/26 01:35:19;;;;;;;0.00;0.00;;;13.60;78.20;;;;;;5054212;28;20439;-67
2021/05/26 01:37:48;;;;;;;0.00;0.00;;;13.60;78.50;;;;;;5054406;28;20528;-67
2021/05/26 01:40:18;;;;;;;0.00;0.00;;;13.60;78.50;;;;;;5055035;28;20048;-67
2021/05/26 01:42:45;;;;;;;0.00;0.00;;;13.60;78.50;;;;;;5053687;28;20049;-67
2021/05/26 01:45:13;;;;;;;0.00;0.00;;;13.60;78.70;;;;;;5054034;28;20048;-67
2021/05/26 01:47:41;;;;;;;0.00;0.00;;;13.60;78.70;;;;;;5053953;28;20061;-67
2021/05/26 01:50:19;;;;;;;0.00;0.00;;;13.60;78.60;;;;;;5054026;28;20491;-67
2021/05/26 01:52:52;;;;;;;0.00;0.00;;;13.60;78.80;;;;;;5053860;28;20049;-67
2021/05/26 01:55:19;;;;;;;0.00;0.00;;;13.60;78.80;;;;;;5054094;28;20044;-67
2021/05/26 01:57:45;;;;;;;0.00;0.00;;;13.60;79.00;;;;;;5053060;28;20045;-67
2021/05/26 02:00:14;;;;;;;0.00;0.00;;;13.60;79.30;;;;;;5053836;28;20083;-67
2021/05/26 02:02:41;;;;;;;0.00;0.00;;;13.60;79.10;;;;;;5053947;28;20067;-67
2021/05/26 02:05:09;;;;;;;0.00;0.00;;;13.60;79.00;;;;;;5053705;28;20484;-67
2021/05/26 02:07:36;;;;;;;0.05;0.05;;;13.60;78.80;;;;;;5053622;28;20048;-67
2021/05/26 02:10:08;;;;;;;0.00;0.00;;;13.60;79.10;;;;;;5053405;28;20045;-67
2021/05/26 02:12:38;;;;;;;0.00;0.00;;;13.60;79.70;;;;;;5053446;28;20057;-67
2021/05/26 02:15:06;;;;;;;0.00;0.00;;;13.60;79.80;;;;;;5053307;28;20052;-67
2021/05/26 02:17:33;;;;;;;0.00;0.00;;;13.50;80.10;;;;;;5053014;28;20544;-67
2021/05/26 02:19:59;;;;;;;0.00;0.00;;;13.50;79.80;;;;;;5051505;28;20127;-67
2021/05/26 02:22:26;;;;;;;0.00;0.00;;;13.50;79.60;;;;;;5053364;28;20041;-67
2021/05/26 02:24:53;;;;;;;0.00;0.00;;;13.60;79.70;;;;;;5051059;28;20088;-67
2021/05/26 02:27:19;;;;;;;0.00;0.00;;;13.60;80.00;;;;;;5053028;28;20048;-67
2021/05/26 02:29:45;;;;;;;0.00;0.00;;;13.50;79.90;;;;;;5052857;28;20504;-67
2021/05/26 02:32:12;;;;;;;0.00;0.00;;;13.60;79.70;;;;;;5052945;28;20052;-67
2021/05/26 02:34:39;;;;;;;0.00;0.00;;;13.60;79.80;;;;;;5053044;28;20486;-67
2021/05/26 02:37:06;;;;;;;0.00;0.00;;;13.60;79.60;;;;;;5053320;28;20056;-67
2021/05/26 02:39:32;;;;;;;0.00;0.00;;;13.60;80.10;;;;;;5052625;28;20064;-67
2021/05/26 02:41:59;;;;;;;0.00;0.00;;;13.60;80.20;;;;;;5066028;28;20081;-67
2021/05/26 02:44:25;;;;;;;0.00;0.00;;;13.60;80.00;;;;;;5052557;28;20506;-67
2021/05/26 02:46:52;;;;;;;0.00;0.00;;;13.60;79.90;;;;;;5052955;28;20132;-67
2021/05/26 02:49:18;;;;;;;0.00;0.00;;;13.60;80.10;;;;;;5052604;28;20453;-67
2021/05/26 02:51:45;;;;;;;0.00;0.00;;;13.60;80.10;;;;;;5052681;28;20052;-67
2021/05/26 02:54:11;;;;;;;0.00;0.00;;;13.60;80.20;;;;;;5052156;28;20053;-67
2021/05/26 02:56:37;;;;;;;0.00;0.00;;;13.60;80.40;;;;;;5052038;28;20049;-67
2021/05/26 02:59:06;;;;;;;0.00;0.00;;;13.50;80.70;;;;;;5052702;28;20244;-67
2021/05/26 03:01:33;;;;;;;0.00;0.00;;;13.50;80.60;;;;;;5052861;28;20053;-67
2021/05/26 03:04:00;;;;;;;0.00;0.00;;;13.50;81.40;;;;;;5052367;28;20408;-67
2021/05/26 03:06:26;;;;;;;0.00;0.00;;;13.50;81.20;;;;;;5052370;28;20048;-67
2021/05/26 03:08:53;;;;;;;0.00;0.00;;;13.50;82.00;;;;;;5051867;28;20565;-67
2021/05/26 03:11:19;;;;;;;0.00;0.00;;;13.40;81.50;;;;;;5051947;28;20045;-67
2021/05/26 03:13:45;;;;;;;0.00;0.00;;;13.40;81.00;;;;;;5052321;28;20503;-67
2021/05/26 03:16:12;;;;;;;0.00;0.00;;;13.30;80.70;;;;;;5052279;28;20175;-67
2021/05/26 03:18:40;;;;;;;0.00;0.00;;;13.30;80.70;;;;;;5052298;28;20069;-67
2021/05/26 03:21:07;;;;;;;0.00;0.00;;;13.20;80.60;;;;;;5052175;28;20127;-67
2021/05/26 03:23:33;;;;;;;0.00;0.00;;;13.20;80.90;;;;;;5051589;28;20100;-67
2021/05/26 03:26:00;;;;;;;0.00;0.00;;;13.20;80.50;;;;;;5051964;28;20064;-67
2021/05/26 03:28:26;;;;;;;0.00;0.00;;;13.20;80.40;;;;;;5051954;28;20431;-67
2021/05/26 03:30:52;;;;;;;0.00;0.00;;;13.10;80.50;;;;;;5052467;28;20045;-67
2021/05/26 03:33:19;;;;;;;0.08;0.08;;;13.10;80.30;;;;;;5052010;28;20477;-67
2021/05/26 03:35:46;;;;;;;0.00;0.00;;;13.10;80.30;;;;;;5052251;28;20051;-67
2021/05/26 03:38:12;;;;;;;0.00;0.00;;;13.00;80.50;;;;;;5052047;28;20128;-67
2021/05/26 03:40:39;;;;;;;0.00;0.00;;;13.00;80.50;;;;;;5051568;28;20049;-67
2021/05/26 03:43:06;;;;;;;0.00;0.00;;;13.00;80.30;;;;;;5052105;28;20566;-67
2021/05/26 03:45:33;;;;;;;0.03;0.03;;;13.00;80.50;;;;;;5051698;28;20056;-67
2021/05/26 03:48:00;;;;;;;0.00;0.00;;;12.90;80.40;;;;;;5051878;28;20098;-67
2021/05/26 03:50:30;;;;;;;0.00;0.00;;;13.00;80.50;;;;;;5051680;28;20041;-67
2021/05/26 03:52:57;;;;;;;0.00;0.00;;;13.00;80.50;;;;;;5052222;28;20108;-67
2021/05/26 03:55:24;;;;;;;0.00;0.00;;;13.00;80.40;;;;;;5052088;28;20045;-67
2021/05/26 03:57:51;;;;;;;0.00;0.00;;;12.90;80.50;;;;;;5051953;28;20056;-67
2021/05/26 04:00:21;;;;;;;0.00;0.00;;;12.90;80.50;;;;;;5051953;28;20128;-67
2021/05/26 04:02:49;;;;;;;0.00;0.00;;;12.90;80.70;;;;;;5052212;28;20045;-67
2021/05/26 04:05:15;;;;;;;0.00;0.00;;;12.90;80.70;;;;;;5051439;28;20053;-67
2021/05/26 04:07:42;;;;;;;0.00;0.00;;;12.90;80.60;;;;;;5051767;28;20115;-67
2021/05/26 04:10:09;;;;;;;0.00;0.00;;;12.90;80.70;;;;;;5051901;28;20420;-67
2021/05/26 04:12:36;;;;;;;0.00;0.00;;;12.90;80.60;;;;;;5032962;28;20409;-67
2021/05/26 04:15:04;;;;;;;0.00;0.00;;;12.90;80.70;;;;;;5051587;28;20128;-67
2021/05/26 04:17:30;;;;;;;0.00;0.00;;;12.90;80.50;;;;;;5051762;28;20083;-67
2021/05/26 04:20:02;;;;;;;0.00;0.00;;;12.90;80.50;;;;;;5043325;28;20048;-67
2021/05/26 04:22:31;;;;;;;0.05;0.05;;;12.90;80.40;;;;;;5053990;28;20056;-67
2021/05/26 04:24:57;;;;;;;0.00;0.00;;;12.90;80.40;;;;;;5055894;28;20545;-67
2021/05/26 04:27:24;;;;;;;0.00;0.00;;;12.90;80.60;;;;;;5055416;28;20526;-67
2021/05/26 04:29:50;;;;;;;0.00;0.00;;;12.90;80.70;;;;;;5055321;28;20499;-67
2021/05/26 04:32:17;;;;;;;0.00;0.00;;;12.90;80.70;;;;;;5055757;28;20128;-67
2021/05/26 04:34:43;;;;;;;0.00;0.00;;;12.90;80.70;;;;;;5054831;28;20115;-67
2021/05/26 04:37:09;;;;;;;0.00;0.00;;;12.90;80.60;;;;;;5055356;28;20045;-67
2021/05/26 04:39:36;;;;;;;0.00;0.00;;;12.90;80.50;;;;;;5054817;28;20064;-67
2021/05/26 04:42:02;;;;;;;0.00;0.00;;;12.90;80.50;;;;;;5066090;28;20144;-67
2021/05/26 04:44:29;;;;;;;0.00;0.00;;;13.00;80.50;;;;;;5055241;28;20084;-67
2021/05/26 04:46:55;;;;;;;0.00;0.00;;;13.00;80.50;;;;;;5054317;28;20519;-67
2021/05/26 04:49:22;;;;;;;0.00;0.00;;;13.00;80.50;;;;;;5054671;28;20077;-67
2021/05/26 04:51:48;;;;;;;0.03;0.03;;;13.00;80.60;;;;;;5054832;28;20048;-67
2021/05/26 04:54:14;;;;;;;0.00;0.00;;;13.00;80.60;;;;;;5054801;28;20075;-67
2021/05/26 04:56:42;;;;;;;0.03;0.03;;;13.00;80.60;;;;;;5054755;28;20503;-67
2021/05/26 04:59:09;;;;;;;0.00;0.00;;;13.00;80.70;;;;;;5055215;28;20056;-67
2021/05/26 05:01:35;;;;;;;0.00;0.00;;;13.00;80.60;;;;;;5054166;28;20049;-67
2021/05/26 05:04:02;;;;;;;0.00;0.00;;;13.00;80.60;;;;;;5054266;28;20052;-67
2021/05/26 05:06:28;;;;;;;0.00;0.00;;;13.00;80.50;;;;;;5054475;28;20048;-67
2021/05/26 05:08:57;;;;;;;0.00;0.00;;;13.00;80.50;;;;;;5054795;28;20045;-67
2021/05/26 05:11:24;;;;;;;0.00;0.00;;;13.10;80.40;;;;;;5054337;28;20044;-67
2021/05/26 05:13:51;;;;;;;0.00;0.00;;;13.00;80.30;;;;;;5054413;28;20403;-67
2021/05/26 05:16:17;;;;;;;0.00;0.00;;;13.10;80.20;;;;;;5054598;28;20523;-67
2021/05/26 05:18:45;;;;;;;0.00;0.00;;;13.00;80.10;;;;;;5054380;28;20048;-67
2021/05/26 05:21:11;;;;;;;0.00;0.00;;;13.00;80.10;;;;;;5054197;28;20054;-67
2021/05/26 05:23:38;;;;;;;0.00;0.00;;;13.10;80.10;;;;;;5054205;28;20149;-68
2021/05/26 05:26:04;;;;;;;0.00;0.00;;;13.10;80.20;;;;;;5054303;28;20553;-68
2021/05/26 05:28:30;;;;;;;0.00;0.00;;;13.10;80.20;;;;;;5054574;28;20076;-69
2021/05/26 05:30:57;;;;;;;0.00;0.00;;;13.00;80.20;;;;;;5053961;28;20150;-69
2021/05/26 05:33:23;;;;;;;0.00;0.00;;;13.10;80.20;;;;;;5052817;28;20060;-69
2021/05/26 05:35:49;;;;;;;0.00;0.00;;;13.10;80.20;;;;;;5053948;28;20445;-70
2021/05/26 05:38:16;;;;;;;0.00;0.00;;;13.00;80.20;;;;;;5053693;28;20068;-69
2021/05/26 05:40:44;;;;;;;0.00;0.00;;;13.10;80.30;;;;;;5053968;28;20057;-69
2021/05/26 05:43:15;;;;;;;0.08;0.08;;;13.10;80.30;;;;;;5052695;28;20044;-69
2021/05/26 05:45:44;;;;;;;0.00;0.00;;;13.10;80.30;;;;;;5032151;28;20482;-69
2021/05/26 05:48:12;;;;;;;0.00;0.00;;;13.10;80.30;;;;;;5034753;28;20052;-69
2021/05/26 05:50:39;;;;;;;0.00;0.00;;;13.10;80.30;;;;;;5052330;28;20036;-69
2021/05/26 05:53:05;;;;;;;0.00;0.00;;;13.10;80.20;;;;;;5053026;28;20081;-70
2021/05/26 05:55:32;;;;;;;0.00;0.00;;;13.10;80.20;;;;;;5053350;28;20091;-70
2021/05/26 05:58:03;;;;;;;0.00;0.00;;;13.10;80.20;;;;;;5053291;28;20489;-70
2021/05/26 06:00:32;;;;;;;0.00;0.00;;;13.10;80.10;;;;;;5052227;28;20045;-70
2021/05/26 06:02:59;;;;;;;0.00;0.00;;;13.10;80.20;;;;;;5052601;28;20045;-69
2021/05/26 06:05:25;;;;;;;0.00;0.00;;;13.10;80.30;;;;;;5052741;28;20048;-70
2021/05/26 06:07:51;;;;;;;0.00;0.00;;;13.10;80.20;;;;;;5052588;28;20049;-70
2021/05/26 06:10:18;;;;;;;0.00;0.00;;;13.00;80.20;;;;;;5052192;28;20044;-70
2021/05/26 06:12:44;;;;;;;0.00;0.00;;;13.10;80.20;;;;;;5052546;28;20128;-69
2021/05/26 06:15:11;;;;;;;0.00;0.00;;;13.10;80.30;;;;;;5053083;28;20485;-78
2021/05/26 06:17:37;;;;;;;0.00;0.00;;;13.10;80.30;;;;;;5051258;28;20517;-75
2021/05/26 06:20:04;;;;;;;0.00;0.00;;;13.10;80.40;;;;;;5053495;28;20049;-75
2021/05/26 06:22:30;;;;;;;0.00;0.00;;;13.10;80.40;;;;;;5052840;28;20049;-76
2021/05/26 06:24:57;;;;;;;0.00;0.00;;;13.20;80.50;;;;;;5052999;28;20053;-70
2021/05/26 06:27:23;;;;;;;0.00;0.00;;;13.20;80.50;;;;;;5051460;28;20040;-74
2021/05/26 06:29:49;;;;;;;0.00;0.00;;;13.20;80.50;;;;;;5052056;28;20265;-69
2021/05/26 06:32:16;;;;;;;0.00;0.00;;;13.20;80.50;;;;;;5051956;28;20045;-69
2021/05/26 06:34:43;;;;;;;0.00;0.00;;;13.20;80.50;;;;;;5052225;28;20408;-70
2021/05/26 06:37:09;;;;;;;0.00;0.00;;;13.30;80.50;;;;;;5053202;28;20175;-74
2021/05/26 06:39:36;;;;;;;0.00;0.00;;;13.30;80.60;;;;;;5052131;28;20056;-70
2021/05/26 06:42:02;;;;;;;0.00;0.00;;;13.30;80.60;;;;;;5063459;28;20513;-70
2021/05/26 06:44:29;;;;;;;0.00;0.00;;;13.30;80.70;;;;;;5052317;28;20045;-70
2021/05/26 06:46:55;;;;;;;0.00;0.00;;;13.30;80.50;;;;;;5052177;28;20045;-70
2021/05/26 06:49:21;;;;;;;0.00;0.00;;;13.30;80.50;;;;;;5052386;28;20049;-70
2021/05/26 06:51:48;;;;;;;0.00;0.00;;;13.30;80.50;;;;;;5052264;28;20048;-70
2021/05/26 06:54:14;;;;;;;0.00;0.00;;;13.30;80.50;;;;;;5052844;28;20092;-69
2021/05/26 06:56:40;;;;;;;0.00;0.00;;;13.30;80.40;;;;;;5052583;28;20128;-69
2021/05/26 06:59:06;;;;;;;0.00;0.00;;;13.30;80.40;;;;;;5052687;28;20048;-71
2021/05/26 07:01:33;;;;;;;0.00;0.00;;;13.30;80.40;;;;;;5051622;28;20053;-77
2021/05/26 07:03:59;;;;;;;0.00;0.00;;;13.30;80.40;;;;;;5051855;28;20135;-76
2021/05/26 07:06:26;;;;;;;0.00;0.00;;;13.30;80.40;;;;;;5052003;28;20095;-70
2021/05/26 07:08:52;;;;;;;0.00;0.00;;;13.30;80.40;;;;;;5048998;28;20072;-70
2021/05/26 07:11:18;;;;;;;0.00;0.00;;;13.30;80.40;;;;;;5051955;28;20052;-70
2021/05/26 07:13:45;;;;;;;0.00;0.00;;;13.30;80.30;;;;;;5051521;28;20530;-70
2021/05/26 07:16:11;;;;;;;0.05;0.05;;;13.40;80.30;;;;;;5052139;28;20122;-69
2021/05/26 07:18:38;;;;;;;0.00;0.00;;;13.40;80.40;;;;;;5051466;28;20052;-71
2021/05/26 07:21:04;;;;;;;0.00;0.00;;;13.40;80.40;;;;;;5051899;28;20492;-70
2021/05/26 07:23:32;;;;;;;0.00;0.00;;;13.40;80.50;;;;;;5052315;28;20072;-69
2021/05/26 07:25:58;;;;;;;0.00;0.00;;;13.40;80.40;;;;;;5049224;28;20053;-77
2021/05/26 07:28:24;;;;;;;0.00;0.00;;;13.40;80.30;;;;;;5035820;28;20044;-70
2021/05/26 07:30:51;;;;;;;0.00;0.00;;;13.50;80.40;;;;;;5051097;28;20052;-69
2021/05/26 07:33:17;;;;;;;0.00;0.00;;;13.50;80.20;;;;;;5050074;28;20080;-70
2021/05/26 07:35:43;;;;;;;0.00;0.00;;;13.50;80.20;;;;;;5050115;28;20515;-70
2021/05/26 07:38:11;;;;;;;0.00;0.00;;;13.50;80.20;;;;;;5049469;28;20045;-70
2021/05/26 07:40:37;;;;;;;0.00;0.00;;;13.50;80.20;;;;;;5050285;28;20064;-70
2021/05/26 07:43:04;;;;;;;0.00;0.00;;;13.50;80.20;;;;;;5050740;28;20045;-70
2021/05/26 07:45:30;;;;;;;0.00;0.00;;;13.50;80.10;;;;;;5050647;28;20194;-70
2021/05/26 07:47:56;;;;;;;0.00;0.00;;;13.50;80.20;;;;;;5049985;28;20106;-69
2021/05/26 07:50:23;;;;;;;0.00;0.00;;;13.50;80.10;;;;;;5050841;28;20045;-70
2021/05/26 07:52:49;;;;;;;0.00;0.00;;;13.50;80.10;;;;;;5050085;28;20045;-70
2021/05/26 07:55:16;;;;;;;0.00;0.00;;;13.50;80.00;;;;;;5050525;28;20361;-70
2021/05/26 07:57:43;;;;;;;0.00;0.00;;;13.60;80.10;;;;;;5054192;28;20045;-70
2021/05/26 08:00:10;;;;;;;0.00;0.00;;;13.60;80.00;;;;;;5054502;28;20045;-70
2021/05/26 08:02:38;;;;;;;0.00;0.00;;;13.60;79.90;;;;;;5055057;28;20465;-69
2021/05/26 08:05:05;;;;;;;0.00;0.00;;;13.60;79.90;;;;;;5053688;28;20082;-70
2021/05/26 08:07:31;;;;;;;0.00;0.00;;;13.70;79.90;;;;;;5055037;28;20131;-70
2021/05/26 08:09:58;;;;;;;0.00;0.00;;;13.70;80.00;;;;;;5054062;28;20088;-70
2021/05/26 08:12:24;;;;;;;0.00;0.00;;;13.60;79.90;;;;;;5053313;28;20060;-70
2021/05/26 08:14:50;;;;;;;0.00;0.00;;;13.70;79.90;;;;;;5052857;28;20052;-71
2021/05/26 08:17:17;;;;;;;0.00;0.00;;;13.70;79.90;;;;;;5053231;28;20516;-70
2021/05/26 08:19:43;;;;;;;0.00;0.00;;;13.70;80.00;;;;;;5053267;28;20102;-70
2021/05/26 08:22:09;;;;;;;0.00;0.00;;;13.70;80.00;;;;;;5052073;28;20045;-70
2021/05/26 08:24:35;;;;;;;0.00;0.00;;;13.70;79.90;;;;;;5052819;28;20428;-69
2021/05/26 08:27:02;;;;;;;0.00;0.00;;;13.70;79.90;;;;;;5053109;28;20049;-70
2021/05/26 08:29:32;;;;;;;0.00;0.00;;;13.80;79.90;;;;;;5036315;28;20132;-70
2021/05/26 08:31:58;;;;;;;0.00;0.00;;;13.70;79.70;;;;;;5053502;28;20049;-70
2021/05/26 08:34:25;;;;;;;0.00;0.00;;;13.80;79.70;;;;;;5053068;28;20468;-70
2021/05/26 08:36:51;;;;;;;0.00;0.00;;;13.70;79.70;;;;;;5052698;28;20127;-71
2021/05/26 08:39:18;;;;;;;0.00;0.00;;;13.70;79.70;;;;;;5052318;28;20100;-71
2021/05/26 08:41:45;;;;;;;0.00;0.00;;;13.70;79.80;;;;;;5053686;28;20605;-71
2021/05/26 08:44:15;;;;;;;0.00;0.00;;;13.70;79.70;;;;;;5053341;28;20091;-71
2021/05/26 08:46:41;;;;;;;0.00;0.00;;;13.70;79.60;;;;;;5052476;28;20049;-70
2021/05/26 08:49:10;;;;;;;0.00;0.00;;;13.70;79.60;;;;;;5052402;28;20267;-71
2021/05/26 08:51:36;;;;;;;0.00;0.00;;;13.70;79.60;;;;;;5051930;28;20044;-69
2021/05/26 08:54:03;;;;;;;0.00;0.00;;;13.70;79.60;;;;;;5053307;28;20053;-71
2021/05/26 08:56:30;;;;;;;0.00;0.00;;;13.70;79.60;;;;;;5052579;28;20052;-71
2021/05/26 08:58:56;;;;;;;0.00;0.00;;;13.70;79.60;;;;;;5052404;28;20207;-70
2021/05/26 09:01:22;;;;;;;0.00;0.00;;;13.70;79.60;;;;;;5052114;28;20506;-70
2021/05/26 09:03:51;;;;;;;0.00;0.00;;;13.70;79.70;;;;;;5052386;28;20056;-70
2021/05/26 09:06:18;;;;;;;0.00;0.00;;;13.70;79.60;;;;;;5052092;28;20055;-71
2021/05/26 09:08:52;;;;;;;0.00;0.00;;;13.70;79.60;;;;;;5052178;28;20174;-71
2021/05/26 09:11:35;;;;;;;0.00;0.00;;;13.70;79.50;;;;;;5051848;28;20072;-70
2021/05/26 09:14:20;;;;;;;0.00;0.00;;;13.70;79.50;;;;;;5052301;28;20563;-71
2021/05/26 09:16:46;;;;;;;0.00;0.00;;;13.70;79.60;;;;;;5052235;28;20044;-71
2021/05/26 09:19:12;;;;;;;0.00;0.00;;;13.70;79.60;;;;;;5051627;28;20041;-70
2021/05/26 09:21:44;;;;;;;0.00;0.00;;;13.70;79.70;;;;;;5019095;28;20076;-70
2021/05/26 09:24:19;;;;;;;0.00;0.00;;;13.70;79.70;;;;;;5051346;28;20777;-71
2021/05/26 09:27:05;;;;;;;0.00;0.00;;;13.70;79.80;;;;;;5051704;28;20049;-70
2021/05/26 09:29:43;;;;;;;0.00;0.00;;;13.70;79.60;;;;;;5051732;28;20645;-70
2021/05/26 09:32:14;;;;;;;0.00;0.00;;;13.80;79.70;;;;;;5052030;28;20049;-71
2021/05/26 09:34:43;;;;;;;0.00;0.00;;;13.70;79.60;;;;;;5051234;28;20041;-71
2021/05/26 09:37:21;;;;;;;0.00;0.00;;;13.70;79.60;;;;;;5052745;28;20471;-70
2021/05/26 09:39:49;;;;;;;0.00;0.00;;;13.70;79.50;;;;;;5048795;28;20061;-70
2021/05/26 09:42:22;;;;;;;0.00;0.00;;;13.80;79.70;;;;;;5052676;28;20080;-71
2021/05/26 09:45:27;;;;;;;0.00;0.00;;;13.80;79.70;;;;;;5052491;28;20044;-70
2021/05/26 09:47:55;;;;;;;0.00;0.00;;;13.80;79.80;;;;;;5052185;28;20142;-70
2021/05/26 09:50:30;;;;;;;0.00;0.00;;;13.80;79.80;;;;;;5052452;28;20041;-71
2021/05/26 09:53:04;;;;;;;0.00;0.00;;;13.80;79.80;;;;;;5051995;28;20053;-70
2021/05/26 09:55:48;;;;;;;0.00;0.00;;;13.80;79.80;;;;;;5023516;28;20405;-70
2021/05/26 09:58:16;;;;;;;0.00;0.00;;;13.90;79.90;;;;;;5051788;28;20045;-73
2021/05/26 10:00:44;;;;;;;0.00;0.00;;;13.90;79.90;;;;;;5050863;28;20148;-71
2021/05/26 10:03:11;;;;;;;0.00;0.00;;;13.80;79.90;;;;;;5020694;28;20045;-71
2021/05/26 10:05:38;;;;;;;0.00;0.00;;;13.90;79.90;;;;;;5052172;28;20068;-71
2021/05/26 10:08:07;;;;;;;0.00;0.00;;;13.90;79.80;;;;;;5020437;28;20072;-71
2021/05/26 10:10:34;;;;;;;0.00;0.00;;;13.90;79.80;;;;;;5049019;28;20080;-71
2021/05/26 10:13:03;;;;;;;0.00;0.00;;;13.90;79.80;;;;;;5052150;28;20124;-71
2021/05/26 10:15:32;;;;;;;0.00;0.00;;;13.90;79.90;;;;;;5052186;28;20090;-71
2021/05/26 10:18:00;;;;;;;0.00;0.00;;;13.90;80.00;;;;;;5052506;28;20128;-70
2021/05/26 10:20:29;;;;;;;0.00;0.00;;;13.90;80.00;;;;;;5051806;28;20123;-70
2021/05/26 10:23:00;;;;;;;0.00;0.00;;;14.00;79.80;;;;;;5052251;28;20045;-70
2021/05/26 10:25:26;;;;;;;0.00;0.00;;;14.00;79.70;;;;;;5052126;28;20508;-70
2021/05/26 10:27:54;;;;;;;0.50;0.50;;;14.00;79.50;;;;;;5051693;28;20053;-70
2021/05/26 10:30:25;;;;;;;0.30;0.30;;;14.00;79.40;;;;;;5051444;28;20057;-70
2021/05/26 10:33:04;;;;;;;0.20;0.20;;;14.10;79.50;;;;;;5050470;28;20056;-70
2021/05/26 10:35:55;;;;;;;0.10;0.10;;;14.10;79.30;;;;;;5050848;28;20039;-70
2021/05/26 10:38:21;;;;;;;0.00;0.00;;;14.20;79.40;;;;;;5035547;28;20059;-69
2021/05/26 10:41:00;;;;;;;0.03;0.03;;;14.20;79.20;;;;;;5047426;28;20055;-70
2021/05/26 10:43:28;;;;;;;0.00;0.00;;;14.10;79.00;;;;;;5050979;28;20194;-69
2021/05/26 10:45:56;;;;;;;0.00;0.00;;;14.20;79.20;;;;;;5051169;28;20056;-69
2021/05/26 10:48:43;;;;;;;0.00;0.00;;;14.20;79.10;;;;;;5051095;28;20094;-69
2021/05/26 10:51:13;;;;;;;0.00;0.00;;;14.20;79.10;;;;;;5051301;28;20084;-68
2021/05/26 10:53:43;;;;;;;0.00;0.00;;;14.20;79.10;;;;;;5051726;28;20120;-69
2021/05/26 10:56:37;;;;;;;0.00;0.00;;;14.20;79.20;;;;;;5051490;28;20476;-69
2021/05/26 10:59:14;;;;;;;0.00;0.00;;;14.30;79.10;;;;;;5045783;28;20128;-69
2021/05/26 11:04:32;;;;;;;0.00;0.00;;;14.30;79.00;;;;;;5050355;28;20044;-71
2021/05/26 11:07:24;;;;;;;0.00;0.00;;;14.30;79.00;;;;;;5049887;28;20041;-70
2021/05/26 11:10:02;;;;;;;0.00;0.00;;;14.30;79.00;;;;;;5041575;28;20194;-70
2021/05/26 11:12:50;;;;;;;0.00;0.00;;;14.30;79.00;;;;;;5050517;28;20404;-69
2021/05/26 11:15:40;;;;;;;0.00;0.00;;;14.30;79.10;;;;;;5032707;28;20487;-69
2021/05/26 11:18:14;;;;;;;0.00;0.00;;;14.30;78.90;;;;;;5051441;28;20120;-69
2021/05/26 11:20:40;;;;;;;0.00;0.00;;;14.30;78.90;;;;;;5051219;28;20128;-69
2021/05/26 11:23:12;;;;;;;0.00;0.00;;;14.30;79.00;;;;;;5049539;28;20620;-69
2021/05/26 11:25:47;;;;;;;0.00;0.00;;;14.30;78.90;;;;;;5048798;28;20128;-69
2021/05/26 11:28:24;;;;;;;0.00;0.00;;;14.30;78.80;;;;;;5050385;28;20124;-70
2021/05/26 11:31:05;;;;;;;0.00;0.00;;;14.30;78.70;;;;;;5048773;28;20120;-70
2021/05/26 11:33:31;;;;;;;0.00;0.00;;;14.40;78.70;;;;;;5049502;28;20124;-70
2021/05/26 11:36:05;;;;;;;0.00;0.00;;;14.40;78.70;;;;;;5049987;28;20053;-69
2021/05/26 11:38:33;;;;;;;0.00;0.00;;;14.40;78.80;;;;;;5048920;28;20090;-69
2021/05/26 11:41:00;;;;;;;0.00;0.00;;;14.40;78.80;;;;;;5032184;28;20131;-70
2021/05/26 11:43:31;;;;;;;0.00;0.00;;;14.40;79.00;;;;;;5034344;28;20048;-70
2021/05/26 11:46:06;;;;;;;0.00;0.00;;;14.40;79.00;;;;;;5050023;28;20073;-70
2021/05/26 11:48:33;;;;;;;0.00;0.00;;;14.40;78.90;;;;;;5046876;28;20045;-70
2021/05/26 11:51:01;;;;;;;0.00;0.00;;;14.40;78.90;;;;;;5048272;28;20504;-69
2021/05/26 11:53:29;;;;;;;0.00;0.00;;;14.40;78.90;;;;;;5028481;28;20041;-70
2021/05/26 11:56:01;;;;;;;0.00;0.00;;;14.50;79.00;;;;;;5031977;28;20067;-70
2021/05/26 11:58:45;;;;;;;0.00;0.00;;;14.50;79.00;;;;;;5049493;28;20079;-70
2021/05/26 12:01:14;;;;;;;0.00;0.00;;;14.50;79.20;;;;;;5050318;28;20123;-71
2021/05/26 12:03:40;;;;;;;0.00;0.00;;;14.50;79.10;;;;;;5050971;28;20052;-71
2021/05/26 12:06:07;;;;;;;0.00;0.00;;;14.50;79.00;;;;;;5051332;28;20140;-70
2021/05/26 12:08:39;;;;;;;0.00;0.00;;;14.60;79.10;;;;;;5051440;28;20053;-70
2021/05/26 12:11:11;;;;;;;0.00;0.00;;;14.60;79.20;;;;;;5051230;28;20132;-70
2021/05/26 12:13:40;;;;;;;0.00;0.00;;;14.60;79.30;;;;;;5047419;28;20127;-70
2021/05/26 12:16:12;;;;;;;0.00;0.00;;;14.60;79.30;;;;;;5051398;28;20392;-71
2021/05/26 12:18:48;;;;;;;0.00;0.00;;;14.60;79.20;;;;;;5050949;28;20518;-71
2021/05/26 12:21:15;;;;;;;0.00;0.00;;;14.70;79.20;;;;;;5051372;28;20045;-71
2021/05/26 12:23:44;;;;;;;0.00;0.00;;;14.70;79.10;;;;;;5051244;28;20053;-71
2021/05/26 12:26:32;;;;;;;0.00;0.00;;;14.70;79.00;;;;;;5051369;28;20131;-70
2021/05/26 12:29:06;;;;;;;0.00;0.00;;;14.70;78.90;;;;;;5051438;28;20049;-71
2021/05/26 12:31:34;;;;;;;0.00;0.00;;;14.70;79.00;;;;;;5051198;28;20037;-72
2021/05/26 12:34:01;;;;;;;0.00;0.00;;;14.70;79.00;;;;;;5051492;28;20124;-70
2021/05/26 12:36:30;;;;;;;0.00;0.00;;;14.70;79.00;;;;;;5051204;28;20128;-70
2021/05/26 12:39:02;;;;;;;0.00;0.00;;;14.80;78.90;;;;;;5050926;28;20087;-71
2021/05/26 12:41:34;;;;;;;0.00;0.00;;;14.80;78.70;;;;;;5052929;28;20048;-71
2021/05/26 12:44:17;;;;;;;0.00;0.00;;;14.90;78.70;;;;;;5055414;28;20175;-71
2021/05/26 12:46:53;;;;;;;0.00;0.00;;;14.90;78.50;;;;;;5054773;28;20067;-71
2021/05/26 12:49:43;;;;;;;0.00;0.00;;;14.90;78.30;;;;;;5054372;28;20133;-71
2021/05/26 12:52:11;;;;;;;0.00;0.00;;;14.90;78.20;;;;;;5043712;28;20041;-71
2021/05/26 12:54:45;;;;;;;0.00;0.00;;;15.00;78.00;;;;;;5054585;28;20512;-71
2021/05/26 12:57:22;;;;;;;0.00;0.00;;;15.00;78.00;;;;;;5052383;28;20120;-71
2021/05/26 12:59:59;;;;;;;0.00;0.00;;;15.00;77.80;;;;;;5054743;28;20492;-70